Flight Track Log - Related Links

Times and Time Zones

All times are in EST time to prevent confusion due to time zone crossing. See the FLX730 flight status page for this flight to view local times or setup timezone preferences in your user account.

Time Position Orientation Groundspeed Altitude Reporting Facility
EST Latitude Longitude Course Direction KTS MPH feet Rate Location/Type
Wed 05:01:53 PM 38.7975 -97.5973 217° Southwest  Level FlightAware Approximate
Wed 05:02:16 PM 38.7778 -97.6164 74° East 150 173 2,300  Level Kansas City Center
Wed 05:03:16 PM 38.7847 -97.5847 79° East 118 136 3,400 1,000 Climbing Kansas City Center
Wed 05:04:16 PM 38.7922 -97.5372 79° East 113 130 4,300 800 Climbing Kansas City Center
Wed 05:05:16 PM 38.7997 -97.4869 82° East 125 144 5,000 700 Climbing Kansas City Center
Wed 05:06:16 PM 38.8053 -97.4364 81° East 130 150 5,700 700 Climbing Kansas City Center
Wed 05:07:16 PM 38.8106 -97.3914 85° East 143 165 6,400 650 Climbing Kansas City Center
Wed 05:08:16 PM 38.8139 -97.3383 78° East 143 165 7,000 350 Climbing Kansas City Center
Wed 05:09:16 PM 38.8236 -97.2772 83° East 148 170 7,100 50 Climbing Kansas City Center
Wed 05:10:16 PM 38.8292 -97.2161 86° East 163 188 7,100  Level Kansas City Center
Wed 05:11:16 PM 38.8328 -97.1525 83° East 168 193 7,100  Level Kansas City Center
Wed 05:12:16 PM 38.8381 -97.0992 80° East 168 193 7,100 -50 Level Kansas City Center
Wed 05:13:16 PM 38.8478 -97.0278 78° East 173 199 7,000 -50 Descending Kansas City Center
Wed 05:14:16 PM 38.8575 -96.9667 81° East 173 199 7,000  Level Kansas City Center
Wed 05:15:16 PM 38.8650 -96.9028 80° East 178 205 7,000 50 Level Kansas City Center
Wed 05:16:17 PM 38.8725 -96.8472 81° East 178 205 7,100 50 Climbing Kansas City Center
Wed 05:17:16 PM 38.8797 -96.7861 81° East 178 205 7,100  Level Kansas City Center
Wed 05:18:16 PM 38.8872 -96.7222 81° East 178 205 7,100  Level Kansas City Center
Wed 05:19:16 PM 38.8947 -96.6611 80° East 178 205 7,100  Level Kansas City Center
Wed 05:20:16 PM 38.9042 -96.5894 79° East 178 205 7,100 -50 Level Kansas City Center
Wed 05:21:16 PM 38.9136 -96.5256 81° East 178 205 7,000  Descending Kansas City Center
Wed 05:22:16 PM 38.9211 -96.4644 84° East 178 205 7,100 50 Climbing Kansas City Center
Wed 05:23:16 PM 38.9261 -96.4058 83° East 178 205 7,100  Level Kansas City Center
Wed 05:24:16 PM 38.9333 -96.3342 84° East 178 205 7,100  Level Kansas City Center
Wed 05:25:16 PM 38.9386 -96.2700 79° East 178 205 7,100  Level Kansas City Center
Wed 05:26:16 PM 38.9478 -96.2089 84° East 178 205 7,100  Level Kansas City Center
Wed 05:27:16 PM 38.9528 -96.1422 81° East 183 211 7,100  Level Kansas City Center
Wed 05:28:16 PM 38.9600 -96.0811 76° East 183 211 7,100 50 Level Kansas City Center
Wed 05:29:16 PM 38.9711 -96.0225 85° East 176 203 7,200  Climbing Kansas City Center
Wed 05:30:16 PM 38.9761 -95.9533 82° East 176 203 7,100  Descending Kansas City Center
Wed 05:31:16 PM 38.9831 -95.8892 82° East 176 203 7,200 50 Climbing Kansas City Center
Wed 05:32:16 PM 38.9900 -95.8281 81° East 176 203 7,200 50 Level Kansas City Center
Wed 05:33:17 PM 38.9969 -95.7719 81° East 181 208 7,300 -150 Climbing Kansas City Center
Wed 05:34:16 PM 39.0061 -95.7000 82° East 181 208 6,900 -202 Descending Kansas City Center
Wed 05:35:16 PM 39.0131 -95.6333 82° East 181 208 6,900 100 Level Kansas City Center
Wed 05:36:16 PM 39.0197 -95.5747 79° East 176 203 7,100 50 Climbing Kansas City Center
Wed 05:37:16 PM 39.0286 -95.5133 83° East 176 203 7,000  Descending Kansas City Center
Wed 05:38:16 PM 39.0356 -95.4439 82° East 181 208 7,100  Climbing Kansas City Center
Wed 05:39:16 PM 39.0422 -95.3800 84° East 181 208 7,000 -50 Descending Kansas City Center
Wed 05:40:16 PM 39.0467 -95.3211 83° East 181 208 7,000  Level Kansas City Center
Wed 05:41:16 PM 39.0533 -95.2544 83° East 181 208 7,000  Level Kansas City Center
Wed 05:42:16 PM 39.0600 -95.1822 81° East 181 208 7,000 -250 Level Kansas City Center
Wed 05:43:16 PM 39.0689 -95.1128 80° East 181 208 6,500 -550 Descending Kansas City Center
Wed 05:44:16 PM 39.0775 -95.0489 80° East 193 222 5,900 -750 Descending Kansas City Center
Wed 05:45:16 PM 39.0883 -94.9714 81° East 201 231 5,000 -850 Descending Kansas City Center
Wed 05:46:16 PM 39.0969 -94.8992 87° East 201 231 4,200 -800 Descending Kansas City Center
Wed 05:47:16 PM 39.0992 -94.8350 83° East 201 231 3,400 -700 Descending Kansas City Center
Wed 05:48:16 PM 39.1056 -94.7681 88° East 194 223 2,800 -650 Descending Kansas City Center
Wed 05:49:16 PM 39.1078 -94.6958 88° East 189 217 2,100 -700 Descending Kansas City Center

Login

Don't have an account? Register now (free) for customized features, flight alerts, and more!